sensor_id;sensor_type;location;lat;lon;timestamp;P1;durP1;ratioP1;P2;durP2;ratioP2
59846;SDS011;45728;48.788;2.302;2022-12-07T00:01:38;33.40;;;14.75;;
59846;SDS011;45728;48.788;2.302;2022-12-07T00:04:06;47.00;;;32.28;;
59846;SDS011;45728;48.788;2.302;2022-12-07T00:06:36;51.40;;;33.85;;
59846;SDS011;45728;48.788;2.302;2022-12-07T00:09:04;46.95;;;17.48;;
59846;SDS011;45728;48.788;2.302;2022-12-07T00:11:31;36.92;;;16.05;;
59846;SDS011;45728;48.788;2.302;2022-12-07T00:13:59;42.25;;;16.88;;
59846;SDS011;45728;48.788;2.302;2022-12-07T00:18:56;42.50;;;15.43;;
59846;SDS011;45728;48.788;2.302;2022-12-07T00:21:29;48.83;;;33.13;;
59846;SDS011;45728;48.788;2.302;2022-12-07T00:23:57;40.38;;;15.93;;
59846;SDS011;45728;48.788;2.302;2022-12-07T00:26:24;46.65;;;31.92;;
59846;SDS011;45728;48.788;2.302;2022-12-07T00:28:53;50.77;;;33.03;;
59846;SDS011;45728;48.788;2.302;2022-12-07T00:31:25;50.63;;;34.03;;
59846;SDS011;45728;48.788;2.302;2022-12-07T00:33:52;41.22;;;16.60;;
59846;SDS011;45728;48.788;2.302;2022-12-07T00:36:19;42.08;;;15.55;;
59846;SDS011;45728;48.788;2.302;2022-12-07T00:38:47;47.65;;;31.88;;
59846;SDS011;45728;48.788;2.302;2022-12-07T00:41:14;39.95;;;14.48;;
59846;SDS011;45728;48.788;2.302;2022-12-07T00:43:42;49.42;;;33.40;;
59846;SDS011;45728;48.788;2.302;2022-12-07T00:46:09;50.70;;;33.45;;
59846;SDS011;45728;48.788;2.302;2022-12-07T00:48:36;43.50;;;16.13;;
59846;SDS011;45728;48.788;2.302;2022-12-07T00:51:02;45.60;;;31.83;;
59846;SDS011;45728;48.788;2.302;2022-12-07T00:53:29;40.42;;;14.77;;
59846;SDS011;45728;48.788;2.302;2022-12-07T00:55:56;35.97;;;15.43;;
59846;SDS011;45728;48.788;2.302;2022-12-07T00:58:23;53.60;;;33.65;;
59846;SDS011;45728;48.788;2.302;2022-12-07T01:00:49;42.03;;;16.10;;
59846;SDS011;45728;48.788;2.302;2022-12-07T01:03:16;53.75;;;33.80;;
59846;SDS011;45728;48.788;2.302;2022-12-07T01:05:49;40.50;;;15.05;;
59846;SDS011;45728;48.788;2.302;2022-12-07T01:08:17;44.58;;;17.30;;
59846;SDS011;45728;48.788;2.302;2022-12-07T01:10:43;40.78;;;16.80;;
59846;SDS011;45728;48.788;2.302;2022-12-07T01:13:09;50.10;;;33.15;;
59846;SDS011;45728;48.788;2.302;2022-12-07T01:15:38;44.25;;;16.65;;
59846;SDS011;45728;48.788;2.302;2022-12-07T01:18:08;54.45;;;34.50;;
59846;SDS011;45728;48.788;2.302;2022-12-07T01:20:35;58.13;;;35.00;;
59846;SDS011;45728;48.788;2.302;2022-12-07T01:23:01;36.35;;;13.05;;
59846;SDS011;45728;48.788;2.302;2022-12-07T01:25:28;56.38;;;36.45;;
59846;SDS011;45728;48.788;2.302;2022-12-07T01:27:54;53.05;;;35.45;;
59846;SDS011;45728;48.788;2.302;2022-12-07T01:30:20;40.70;;;16.50;;
59846;SDS011;45728;48.788;2.302;2022-12-07T01:32:46;57.05;;;36.80;;
59846;SDS011;45728;48.788;2.302;2022-12-07T01:35:12;55.55;;;34.97;;
59846;SDS011;45728;48.788;2.302;2022-12-07T01:37:38;38.38;;;15.63;;
59846;SDS011;45728;48.788;2.302;2022-12-07T01:40:05;45.42;;;16.80;;
59846;SDS011;45728;48.788;2.302;2022-12-07T01:42:32;44.67;;;16.13;;
59846;SDS011;45728;48.788;2.302;2022-12-07T01:47:49;42.05;;;15.13;;
59846;SDS011;45728;48.788;2.302;2022-12-07T01:50:18;44.90;;;17.25;;
59846;SDS011;45728;48.788;2.302;2022-12-07T01:52:46;60.50;;;38.58;;
59846;SDS011;45728;48.788;2.302;2022-12-07T01:55:16;47.28;;;17.17;;
59846;SDS011;45728;48.788;2.302;2022-12-07T01:57:43;59.80;;;36.30;;
59846;SDS011;45728;48.788;2.302;2022-12-07T02:00:13;45.40;;;17.23;;
59846;SDS011;45728;48.788;2.302;2022-12-07T02:02:47;42.35;;;15.02;;
59846;SDS011;45728;48.788;2.302;2022-12-07T02:05:17;44.33;;;15.43;;
59846;SDS011;45728;48.788;2.302;2022-12-07T02:07:45;46.85;;;16.85;;
59846;SDS011;45728;48.788;2.302;2022-12-07T02:10:20;50.10;;;17.02;;
59846;SDS011;45728;48.788;2.302;2022-12-07T02:12:50;58.60;;;37.20;;
59846;SDS011;45728;48.788;2.302;2022-12-07T02:15:24;47.22;;;16.42;;
59846;SDS011;45728;48.788;2.302;2022-12-07T02:26:48;52.03;;;34.33;;
59846;SDS011;45728;48.788;2.302;2022-12-07T02:35:05;49.25;;;31.77;;
59846;SDS011;45728;48.788;2.302;2022-12-07T02:40:28;50.67;;;31.55;;
59846;SDS011;45728;48.788;2.302;2022-12-07T02:43:04;54.67;;;33.58;;
59846;SDS011;45728;48.788;2.302;2022-12-07T02:45:41;49.85;;;16.10;;
59846;SDS011;45728;48.788;2.302;2022-12-07T02:48:11;35.67;;;13.13;;
59846;SDS011;45728;48.788;2.302;2022-12-07T02:50:43;33.40;;;14.35;;
59846;SDS011;45728;48.788;2.302;2022-12-07T02:55:56;36.08;;;13.50;;
59846;SDS011;45728;48.788;2.302;2022-12-07T02:58:26;35.10;;;12.90;;
59846;SDS011;45728;48.788;2.302;2022-12-07T03:01:27;37.60;;;14.57;;
59846;SDS011;45728;48.788;2.302;2022-12-07T03:04:20;37.83;;;12.40;;
59846;SDS011;45728;48.788;2.302;2022-12-07T03:07:13;39.88;;;14.30;;
59846;SDS011;45728;48.788;2.302;2022-12-07T03:10:00;44.10;;;29.27;;
59846;SDS011;45728;48.788;2.302;2022-12-07T03:12:37;31.58;;;12.73;;
59846;SDS011;45728;48.788;2.302;2022-12-07T03:18:13;48.35;;;29.48;;
59846;SDS011;45728;48.788;2.302;2022-12-07T03:20:42;40.15;;;13.30;;
59846;SDS011;45728;48.788;2.302;2022-12-07T03:23:11;43.23;;;29.63;;
59846;SDS011;45728;48.788;2.302;2022-12-07T03:25:41;34.40;;;12.88;;
59846;SDS011;45728;48.788;2.302;2022-12-07T03:28:13;34.45;;;13.48;;
59846;SDS011;45728;48.788;2.302;2022-12-07T03:30:47;35.35;;;15.00;;
59846;SDS011;45728;48.788;2.302;2022-12-07T03:35:51;48.72;;;31.10;;
59846;SDS011;45728;48.788;2.302;2022-12-07T03:38:52;48.75;;;30.65;;
59846;SDS011;45728;48.788;2.302;2022-12-07T03:41:24;50.07;;;31.33;;
59846;SDS011;45728;48.788;2.302;2022-12-07T03:43:54;28.33;;;11.68;;
59846;SDS011;45728;48.788;2.302;2022-12-07T03:46:37;33.08;;;12.77;;
59846;SDS011;45728;48.788;2.302;2022-12-07T03:49:12;35.78;;;13.18;;
59846;SDS011;45728;48.788;2.302;2022-12-07T03:54:52;44.55;;;14.23;;
59846;SDS011;45728;48.788;2.302;2022-12-07T03:57:30;33.85;;;13.40;;
59846;SDS011;45728;48.788;2.302;2022-12-07T03:59:58;39.42;;;12.55;;
59846;SDS011;45728;48.788;2.302;2022-12-07T04:02:26;47.42;;;31.55;;
59846;SDS011;45728;48.788;2.302;2022-12-07T04:04:54;32.83;;;13.23;;
59846;SDS011;45728;48.788;2.302;2022-12-07T04:07:21;31.15;;;12.02;;
59846;SDS011;45728;48.788;2.302;2022-12-07T04:09:47;34.63;;;12.10;;
59846;SDS011;45728;48.788;2.302;2022-12-07T04:12:13;34.33;;;14.23;;
59846;SDS011;45728;48.788;2.302;2022-12-07T04:14:39;44.80;;;29.00;;
59846;SDS011;45728;48.788;2.302;2022-12-07T04:17:05;44.63;;;28.88;;
59846;SDS011;45728;48.788;2.302;2022-12-07T04:19:32;45.55;;;29.27;;
59846;SDS011;45728;48.788;2.302;2022-12-07T04:22:00;37.80;;;13.85;;
59846;SDS011;45728;48.788;2.302;2022-12-07T04:24:27;37.33;;;14.80;;
59846;SDS011;45728;48.788;2.302;2022-12-07T04:26:54;34.65;;;13.20;;
59846;SDS011;45728;48.788;2.302;2022-12-07T04:29:20;37.88;;;15.70;;
59846;SDS011;45728;48.788;2.302;2022-12-07T04:31:47;31.95;;;13.02;;
59846;SDS011;45728;48.788;2.302;2022-12-07T04:34:14;38.45;;;12.05;;
59846;SDS011;45728;48.788;2.302;2022-12-07T04:36:41;33.25;;;13.07;;
59846;SDS011;45728;48.788;2.302;2022-12-07T04:39:07;34.30;;;13.45;;
59846;SDS011;45728;48.788;2.302;2022-12-07T04:41:42;41.50;;;12.93;;
59846;SDS011;45728;48.788;2.302;2022-12-07T04:44:08;36.28;;;13.25;;
59846;SDS011;45728;48.788;2.302;2022-12-07T04:46:34;36.38;;;13.57;;
59846;SDS011;45728;48.788;2.302;2022-12-07T04:49:00;28.88;;;10.77;;
59846;SDS011;45728;48.788;2.302;2022-12-07T04:51:28;28.52;;;10.35;;
59846;SDS011;45728;48.788;2.302;2022-12-07T04:53:54;28.70;;;10.75;;
59846;SDS011;45728;48.788;2.302;2022-12-07T04:56:21;28.30;;;11.50;;
59846;SDS011;45728;48.788;2.302;2022-12-07T04:58:48;34.25;;;13.05;;
59846;SDS011;45728;48.788;2.302;2022-12-07T05:01:15;27.58;;;11.57;;
59846;SDS011;45728;48.788;2.302;2022-12-07T05:03:42;28.75;;;11.93;;
59846;SDS011;45728;48.788;2.302;2022-12-07T05:06:09;29.52;;;20.80;;
59846;SDS011;45728;48.788;2.302;2022-12-07T05:08:36;24.42;;;11.13;;
59846;SDS011;45728;48.788;2.302;2022-12-07T05:11:03;29.58;;;21.75;;
59846;SDS011;45728;48.788;2.302;2022-12-07T05:13:30;25.00;;;10.23;;
59846;SDS011;45728;48.788;2.302;2022-12-07T05:15:56;28.38;;;10.85;;
59846;SDS011;45728;48.788;2.302;2022-12-07T05:18:22;25.73;;;11.15;;
59846;SDS011;45728;48.788;2.302;2022-12-07T05:20:49;32.28;;;22.35;;
59846;SDS011;45728;48.788;2.302;2022-12-07T05:23:16;24.40;;;9.98;;
59846;SDS011;45728;48.788;2.302;2022-12-07T05:25:43;32.05;;;22.92;;
59846;SDS011;45728;48.788;2.302;2022-12-07T05:28:09;24.20;;;10.20;;
59846;SDS011;45728;48.788;2.302;2022-12-07T05:30:36;29.25;;;20.88;;
59846;SDS011;45728;48.788;2.302;2022-12-07T05:33:02;22.85;;;9.65;;
59846;SDS011;45728;48.788;2.302;2022-12-07T05:35:28;23.08;;;9.90;;
59846;SDS011;45728;48.788;2.302;2022-12-07T05:37:55;29.27;;;20.33;;
59846;SDS011;45728;48.788;2.302;2022-12-07T05:40:22;21.80;;;10.10;;
59846;SDS011;45728;48.788;2.302;2022-12-07T05:42:48;22.55;;;9.70;;
59846;SDS011;45728;48.788;2.302;2022-12-07T05:45:14;24.10;;;9.48;;
59846;SDS011;45728;48.788;2.302;2022-12-07T05:47:40;24.08;;;10.82;;
59846;SDS011;45728;48.788;2.302;2022-12-07T05:50:06;19.02;;;8.93;;
59846;SDS011;45728;48.788;2.302;2022-12-07T05:52:33;19.92;;;10.55;;
59846;SDS011;45728;48.788;2.302;2022-12-07T05:54:59;24.67;;;18.55;;
59846;SDS011;45728;48.788;2.302;2022-12-07T05:57:25;21.90;;;10.75;;
59846;SDS011;45728;48.788;2.302;2022-12-07T05:59:51;23.30;;;10.90;;
59846;SDS011;45728;48.788;2.302;2022-12-07T06:02:17;22.13;;;9.70;;
59846;SDS011;45728;48.788;2.302;2022-12-07T06:04:44;26.05;;;19.90;;
59846;SDS011;45728;48.788;2.302;2022-12-07T06:07:12;26.60;;;10.45;;
59846;SDS011;45728;48.788;2.302;2022-12-07T06:09:39;22.13;;;10.65;;
59846;SDS011;45728;48.788;2.302;2022-12-07T06:12:06;24.33;;;10.48;;
59846;SDS011;45728;48.788;2.302;2022-12-07T06:14:53;23.50;;;11.05;;
59846;SDS011;45728;48.788;2.302;2022-12-07T06:17:19;25.30;;;20.17;;
59846;SDS011;45728;48.788;2.302;2022-12-07T06:19:45;24.05;;;10.60;;
59846;SDS011;45728;48.788;2.302;2022-12-07T06:22:11;19.70;;;9.43;;
59846;SDS011;45728;48.788;2.302;2022-12-07T06:24:38;24.17;;;19.88;;
59846;SDS011;45728;48.788;2.302;2022-12-07T06:27:05;24.08;;;11.02;;
59846;SDS011;45728;48.788;2.302;2022-12-07T06:29:31;19.25;;;9.75;;
59846;SDS011;45728;48.788;2.302;2022-12-07T06:31:57;23.58;;;12.07;;
59846;SDS011;45728;48.788;2.302;2022-12-07T06:34:24;27.98;;;21.58;;
59846;SDS011;45728;48.788;2.302;2022-12-07T06:36:51;24.23;;;10.95;;
59846;SDS011;45728;48.788;2.302;2022-12-07T06:39:19;28.27;;;21.75;;
59846;SDS011;45728;48.788;2.302;2022-12-07T06:41:46;30.52;;;21.67;;
59846;SDS011;45728;48.788;2.302;2022-12-07T06:44:12;30.13;;;21.67;;
59846;SDS011;45728;48.788;2.302;2022-12-07T06:46:39;23.20;;;10.43;;
59846;SDS011;45728;48.788;2.302;2022-12-07T06:49:05;22.00;;;10.35;;
59846;SDS011;45728;48.788;2.302;2022-12-07T06:51:32;28.70;;;21.35;;
59846;SDS011;45728;48.788;2.302;2022-12-07T06:54:04;21.90;;;10.93;;
59846;SDS011;45728;48.788;2.302;2022-12-07T06:56:30;28.47;;;21.83;;
59846;SDS011;45728;48.788;2.302;2022-12-07T06:58:56;20.60;;;9.75;;
59846;SDS011;45728;48.788;2.302;2022-12-07T07:01:22;22.55;;;10.32;;
59846;SDS011;45728;48.788;2.302;2022-12-07T07:03:49;24.55;;;11.07;;
59846;SDS011;45728;48.788;2.302;2022-12-07T07:06:15;29.00;;;20.67;;
59846;SDS011;45728;48.788;2.302;2022-12-07T07:08:41;27.83;;;11.77;;
59846;SDS011;45728;48.788;2.302;2022-12-07T07:11:07;27.58;;;21.67;;
59846;SDS011;45728;48.788;2.302;2022-12-07T07:13:34;23.30;;;10.95;;
59846;SDS011;45728;48.788;2.302;2022-12-07T07:16:00;24.48;;;19.38;;
59846;SDS011;45728;48.788;2.302;2022-12-07T07:18:27;24.45;;;11.30;;
59846;SDS011;45728;48.788;2.302;2022-12-07T07:20:53;25.95;;;19.77;;
59846;SDS011;45728;48.788;2.302;2022-12-07T07:23:20;23.90;;;11.30;;
59846;SDS011;45728;48.788;2.302;2022-12-07T07:25:47;20.02;;;8.75;;
59846;SDS011;45728;48.788;2.302;2022-12-07T07:28:13;27.10;;;19.58;;
59846;SDS011;45728;48.788;2.302;2022-12-07T07:30:40;22.60;;;10.80;;
59846;SDS011;45728;48.788;2.302;2022-12-07T07:33:06;29.20;;;21.30;;
59846;SDS011;45728;48.788;2.302;2022-12-07T07:35:33;25.38;;;11.93;;
59846;SDS011;45728;48.788;2.302;2022-12-07T07:38:00;25.33;;;19.92;;
59846;SDS011;45728;48.788;2.302;2022-12-07T07:40:27;27.35;;;20.13;;
59846;SDS011;45728;48.788;2.302;2022-12-07T07:42:54;24.60;;;11.05;;
59846;SDS011;45728;48.788;2.302;2022-12-07T07:45:22;26.10;;;20.70;;
59846;SDS011;45728;48.788;2.302;2022-12-07T07:47:49;25.58;;;11.30;;
59846;SDS011;45728;48.788;2.302;2022-12-07T07:50:16;30.63;;;22.45;;
59846;SDS011;45728;48.788;2.302;2022-12-07T07:52:43;27.75;;;12.95;;
59846;SDS011;45728;48.788;2.302;2022-12-07T07:55:10;34.05;;;23.38;;
59846;SDS011;45728;48.788;2.302;2022-12-07T07:57:37;25.30;;;12.35;;
59846;SDS011;45728;48.788;2.302;2022-12-07T08:00:04;30.65;;;22.17;;
59846;SDS011;45728;48.788;2.302;2022-12-07T08:02:35;30.88;;;22.33;;
59846;SDS011;45728;48.788;2.302;2022-12-07T08:05:02;28.98;;;22.48;;
59846;SDS011;45728;48.788;2.302;2022-12-07T08:07:28;28.75;;;22.35;;
59846;SDS011;45728;48.788;2.302;2022-12-07T08:09:54;29.13;;;22.08;;
59846;SDS011;45728;48.788;2.302;2022-12-07T08:12:20;24.17;;;11.95;;
59846;SDS011;45728;48.788;2.302;2022-12-07T08:14:46;23.95;;;12.13;;
59846;SDS011;45728;48.788;2.302;2022-12-07T08:17:12;27.00;;;21.55;;
59846;SDS011;45728;48.788;2.302;2022-12-07T08:19:38;33.33;;;23.77;;
59846;SDS011;45728;48.788;2.302;2022-12-07T08:22:04;25.33;;;20.13;;
59846;SDS011;45728;48.788;2.302;2022-12-07T08:24:33;30.23;;;22.75;;
59846;SDS011;45728;48.788;2.302;2022-12-07T08:26:59;29.05;;;12.50;;
59846;SDS011;45728;48.788;2.302;2022-12-07T08:29:25;25.98;;;13.70;;
59846;SDS011;45728;48.788;2.302;2022-12-07T08:31:52;32.38;;;24.33;;
59846;SDS011;45728;48.788;2.302;2022-12-07T08:34:18;38.38;;;26.05;;
59846;SDS011;45728;48.788;2.302;2022-12-07T08:36:44;26.08;;;13.32;;
59846;SDS011;45728;48.788;2.302;2022-12-07T08:39:10;24.70;;;10.82;;
59846;SDS011;45728;48.788;2.302;2022-12-07T08:41:36;26.90;;;18.10;;
59846;SDS011;45728;48.788;2.302;2022-12-07T08:44:02;22.88;;;17.63;;
59846;SDS011;45728;48.788;2.302;2022-12-07T08:46:33;24.08;;;17.35;;
59846;SDS011;45728;48.788;2.302;2022-12-07T08:49:15;19.10;;;9.65;;
59846;SDS011;45728;48.788;2.302;2022-12-07T08:51:44;19.33;;;9.57;;
59846;SDS011;45728;48.788;2.302;2022-12-07T08:54:11;23.95;;;18.15;;
59846;SDS011;45728;48.788;2.302;2022-12-07T08:56:41;23.58;;;17.60;;
59846;SDS011;45728;48.788;2.302;2022-12-07T08:59:07;16.60;;;8.45;;
59846;SDS011;45728;48.788;2.302;2022-12-07T09:01:34;13.65;;;7.43;;
59846;SDS011;45728;48.788;2.302;2022-12-07T09:04:00;24.88;;;17.27;;
59846;SDS011;45728;48.788;2.302;2022-12-07T09:06:26;25.92;;;17.60;;
59846;SDS011;45728;48.788;2.302;2022-12-07T09:08:54;25.90;;;18.45;;
59846;SDS011;45728;48.788;2.302;2022-12-07T09:11:23;22.90;;;10.30;;
59846;SDS011;45728;48.788;2.302;2022-12-07T09:13:49;24.65;;;19.08;;
59846;SDS011;45728;48.788;2.302;2022-12-07T09:16:15;18.90;;;8.95;;
59846;SDS011;45728;48.788;2.302;2022-12-07T09:18:41;27.42;;;18.83;;
59846;SDS011;45728;48.788;2.302;2022-12-07T09:21:08;18.33;;;9.45;;
59846;SDS011;45728;48.788;2.302;2022-12-07T09:23:34;22.90;;;17.98;;
59846;SDS011;45728;48.788;2.302;2022-12-07T09:26:01;18.85;;;9.23;;
59846;SDS011;45728;48.788;2.302;2022-12-07T09:28:30;22.95;;;16.83;;
59846;SDS011;45728;48.788;2.302;2022-12-07T09:30:56;26.38;;;17.70;;
59846;SDS011;45728;48.788;2.302;2022-12-07T09:33:23;27.05;;;18.45;;
59846;SDS011;45728;48.788;2.302;2022-12-07T09:35:49;23.10;;;17.85;;
59846;SDS011;45728;48.788;2.302;2022-12-07T09:38:17;15.05;;;7.72;;
59846;SDS011;45728;48.788;2.302;2022-12-07T09:40:44;24.98;;;18.63;;
59846;SDS011;45728;48.788;2.302;2022-12-07T09:43:15;17.08;;;8.00;;
59846;SDS011;45728;48.788;2.302;2022-12-07T09:45:50;20.27;;;8.75;;
59846;SDS011;45728;48.788;2.302;2022-12-07T09:48:32;20.15;;;10.50;;
59846;SDS011;45728;48.788;2.302;2022-12-07T09:51:20;24.85;;;18.35;;
59846;SDS011;45728;48.788;2.302;2022-12-07T09:53:48;23.80;;;10.70;;
59846;SDS011;45728;48.788;2.302;2022-12-07T09:56:15;21.92;;;10.57;;
59846;SDS011;45728;48.788;2.302;2022-12-07T09:58:42;23.40;;;16.48;;
59846;SDS011;45728;48.788;2.302;2022-12-07T10:01:19;18.52;;;15.18;;
59846;SDS011;45728;48.788;2.302;2022-12-07T10:03:54;18.27;;;14.90;;
59846;SDS011;45728;48.788;2.302;2022-12-07T10:06:26;17.98;;;14.30;;
59846;SDS011;45728;48.788;2.302;2022-12-07T10:08:52;16.05;;;13.07;;
59846;SDS011;45728;48.788;2.302;2022-12-07T10:11:18;18.17;;;13.10;;
59846;SDS011;45728;48.788;2.302;2022-12-07T10:13:47;20.00;;;14.85;;
59846;SDS011;45728;48.788;2.302;2022-12-07T10:16:35;24.40;;;14.55;;
59846;SDS011;45728;48.788;2.302;2022-12-07T10:19:17;19.05;;;13.60;;
59846;SDS011;45728;48.788;2.302;2022-12-07T10:22:27;18.35;;;12.40;;
59846;SDS011;45728;48.788;2.302;2022-12-07T10:24:39;22.80;;;14.65;;
59846;SDS011;45728;48.788;2.302;2022-12-07T10:27:28;18.63;;;12.55;;
59846;SDS011;45728;48.788;2.302;2022-12-07T10:29:56;18.00;;;12.98;;
59846;SDS011;45728;48.788;2.302;2022-12-07T10:34:50;15.32;;;12.68;;
59846;SDS011;45728;48.788;2.302;2022-12-07T10:37:18;17.63;;;12.73;;
59846;SDS011;45728;48.788;2.302;2022-12-07T10:42:24;18.58;;;12.93;;
59846;SDS011;45728;48.788;2.302;2022-12-07T10:47:51;18.38;;;14.40;;
59846;SDS011;45728;48.788;2.302;2022-12-07T10:53:27;20.55;;;13.52;;
59846;SDS011;45728;48.788;2.302;2022-12-07T11:04:21;15.93;;;12.85;;
59846;SDS011;45728;48.788;2.302;2022-12-07T11:17:59;17.55;;;14.25;;
59846;SDS011;45728;48.788;2.302;2022-12-07T11:34:16;18.17;;;13.98;;
59846;SDS011;45728;48.788;2.302;2022-12-07T11:36:51;19.20;;;12.98;;
59846;SDS011;45728;48.788;2.302;2022-12-07T11:41:52;20.77;;;14.18;;
59846;SDS011;45728;48.788;2.302;2022-12-07T11:52:48;20.05;;;14.02;;
59846;SDS011;45728;48.788;2.302;2022-12-07T11:58:14;19.17;;;13.90;;
59846;SDS011;45728;48.788;2.302;2022-12-07T12:01:44;17.25;;;13.10;;
59846;SDS011;45728;48.788;2.302;2022-12-07T12:06:44;19.77;;;13.50;;
59846;SDS011;45728;48.788;2.302;2022-12-07T12:09:14;17.70;;;12.25;;
59846;SDS011;45728;48.788;2.302;2022-12-07T12:22:44;25.02;;;14.80;;
59846;SDS011;45728;48.788;2.302;2022-12-07T12:25:36;21.95;;;16.33;;
59846;SDS011;45728;48.788;2.302;2022-12-07T12:28:03;27.80;;;15.20;;
59846;SDS011;45728;48.788;2.302;2022-12-07T12:30:34;20.20;;;14.68;;
59846;SDS011;45728;48.788;2.302;2022-12-07T12:33:04;23.42;;;15.38;;
59846;SDS011;45728;48.788;2.302;2022-12-07T12:35:45;23.40;;;14.93;;
59846;SDS011;45728;48.788;2.302;2022-12-07T12:38:31;24.20;;;15.20;;
59846;SDS011;45728;48.788;2.302;2022-12-07T12:41:01;23.13;;;14.05;;
59846;SDS011;45728;48.788;2.302;2022-12-07T12:43:40;21.73;;;14.60;;
59846;SDS011;45728;48.788;2.302;2022-12-07T12:48:56;20.58;;;14.82;;
59846;SDS011;45728;48.788;2.302;2022-12-07T12:55:42;21.60;;;14.00;;
59846;SDS011;45728;48.788;2.302;2022-12-07T12:57:32;17.88;;;14.48;;
59846;SDS011;45728;48.788;2.302;2022-12-07T12:59:59;19.70;;;9.60;;
59846;SDS011;45728;48.788;2.302;2022-12-07T13:05:03;19.98;;;14.93;;
59846;SDS011;45728;48.788;2.302;2022-12-07T13:26:03;18.27;;;12.75;;
59846;SDS011;45728;48.788;2.302;2022-12-07T13:28:54;20.83;;;13.98;;
59846;SDS011;45728;48.788;2.302;2022-12-07T13:31:54;18.73;;;13.23;;
59846;SDS011;45728;48.788;2.302;2022-12-07T13:34:38;20.90;;;14.10;;
59846;SDS011;45728;48.788;2.302;2022-12-07T13:37:15;19.30;;;13.60;;
59846;SDS011;45728;48.788;2.302;2022-12-07T13:39:59;20.42;;;13.73;;
59846;SDS011;45728;48.788;2.302;2022-12-07T13:42:37;18.92;;;12.95;;
59846;SDS011;45728;48.788;2.302;2022-12-07T13:45:20;20.05;;;12.88;;
59846;SDS011;45728;48.788;2.302;2022-12-07T13:48:10;23.80;;;15.05;;
59846;SDS011;45728;48.788;2.302;2022-12-07T13:50:51;20.63;;;15.20;;
59846;SDS011;45728;48.788;2.302;2022-12-07T13:53:19;17.63;;;13.13;;
59846;SDS011;45728;48.788;2.302;2022-12-07T13:55:45;25.60;;;16.23;;
59846;SDS011;45728;48.788;2.302;2022-12-07T13:58:12;25.83;;;16.45;;
59846;SDS011;45728;48.788;2.302;2022-12-07T14:00:39;22.65;;;15.82;;
59846;SDS011;45728;48.788;2.302;2022-12-07T14:05:39;22.50;;;15.23;;
59846;SDS011;45728;48.788;2.302;2022-12-07T14:10:37;23.02;;;15.85;;
59846;SDS011;45728;48.788;2.302;2022-12-07T14:18:57;26.17;;;17.58;;
59846;SDS011;45728;48.788;2.302;2022-12-07T14:21:25;22.00;;;16.33;;
59846;SDS011;45728;48.788;2.302;2022-12-07T14:24:04;24.60;;;17.50;;
59846;SDS011;45728;48.788;2.302;2022-12-07T14:26:33;22.85;;;16.92;;
59846;SDS011;45728;48.788;2.302;2022-12-07T14:31:45;22.08;;;14.63;;
59846;SDS011;45728;48.788;2.302;2022-12-07T14:34:14;20.00;;;15.20;;
59846;SDS011;45728;48.788;2.302;2022-12-07T14:36:40;23.90;;;15.90;;
59846;SDS011;45728;48.788;2.302;2022-12-07T14:39:06;23.45;;;17.42;;
59846;SDS011;45728;48.788;2.302;2022-12-07T14:41:32;22.92;;;14.98;;
59846;SDS011;45728;48.788;2.302;2022-12-07T14:44:17;22.23;;;15.32;;
59846;SDS011;45728;48.788;2.302;2022-12-07T14:46:45;17.92;;;14.40;;
59846;SDS011;45728;48.788;2.302;2022-12-07T14:49:11;18.48;;;14.73;;
59846;SDS011;45728;48.788;2.302;2022-12-07T14:51:37;21.17;;;13.90;;
59846;SDS011;45728;48.788;2.302;2022-12-07T14:54:06;20.50;;;13.65;;
59846;SDS011;45728;48.788;2.302;2022-12-07T14:56:38;17.60;;;13.65;;
59846;SDS011;45728;48.788;2.302;2022-12-07T14:59:04;21.30;;;14.35;;
59846;SDS011;45728;48.788;2.302;2022-12-07T15:01:30;20.55;;;14.48;;
59846;SDS011;45728;48.788;2.302;2022-12-07T15:03:56;24.73;;;14.50;;
59846;SDS011;45728;48.788;2.302;2022-12-07T15:06:22;18.02;;;14.05;;
59846;SDS011;45728;48.788;2.302;2022-12-07T15:08:48;19.58;;;14.35;;
59846;SDS011;45728;48.788;2.302;2022-12-07T15:11:15;20.73;;;13.68;;
59846;SDS011;45728;48.788;2.302;2022-12-07T15:13:42;19.63;;;13.65;;
59846;SDS011;45728;48.788;2.302;2022-12-07T15:16:27;23.73;;;9.00;;
59846;SDS011;45728;48.788;2.302;2022-12-07T15:18:53;18.80;;;14.25;;
59846;SDS011;45728;48.788;2.302;2022-12-07T15:21:19;18.90;;;14.15;;
59846;SDS011;45728;48.788;2.302;2022-12-07T15:23:46;22.10;;;15.38;;
59846;SDS011;45728;48.788;2.302;2022-12-07T15:26:12;23.02;;;10.38;;
59846;SDS011;45728;48.788;2.302;2022-12-07T15:28:39;23.40;;;15.90;;
59846;SDS011;45728;48.788;2.302;2022-12-07T15:31:13;21.33;;;16.00;;
59846;SDS011;45728;48.788;2.302;2022-12-07T15:33:40;23.42;;;15.40;;
59846;SDS011;45728;48.788;2.302;2022-12-07T15:36:07;25.98;;;16.30;;
59846;SDS011;45728;48.788;2.302;2022-12-07T15:38:33;24.50;;;16.42;;
59846;SDS011;45728;48.788;2.302;2022-12-07T15:41:01;22.02;;;16.23;;
59846;SDS011;45728;48.788;2.302;2022-12-07T15:43:27;24.48;;;17.35;;
59846;SDS011;45728;48.788;2.302;2022-12-07T15:46:12;23.35;;;15.98;;
59846;SDS011;45728;48.788;2.302;2022-12-07T15:48:38;24.30;;;15.45;;
59846;SDS011;45728;48.788;2.302;2022-12-07T15:51:07;18.73;;;14.45;;
59846;SDS011;45728;48.788;2.302;2022-12-07T15:53:34;20.80;;;14.23;;
59846;SDS011;45728;48.788;2.302;2022-12-07T15:56:00;20.15;;;15.52;;
59846;SDS011;45728;48.788;2.302;2022-12-07T15:58:27;21.90;;;14.55;;
59846;SDS011;45728;48.788;2.302;2022-12-07T16:00:53;17.80;;;13.52;;
59846;SDS011;45728;48.788;2.302;2022-12-07T16:03:19;21.17;;;13.77;;
59846;SDS011;45728;48.788;2.302;2022-12-07T16:05:48;19.27;;;14.65;;
59846;SDS011;45728;48.788;2.302;2022-12-07T16:08:15;18.70;;;13.18;;
59846;SDS011;45728;48.788;2.302;2022-12-07T16:10:41;19.15;;;13.15;;
59846;SDS011;45728;48.788;2.302;2022-12-07T16:13:09;19.08;;;13.75;;
59846;SDS011;45728;48.788;2.302;2022-12-07T16:15:39;21.92;;;13.02;;
59846;SDS011;45728;48.788;2.302;2022-12-07T16:20:31;23.42;;;14.35;;
59846;SDS011;45728;48.788;2.302;2022-12-07T16:22:58;18.02;;;13.15;;
59846;SDS011;45728;48.788;2.302;2022-12-07T16:25:24;21.98;;;13.65;;
59846;SDS011;45728;48.788;2.302;2022-12-07T16:27:53;20.73;;;8.00;;
59846;SDS011;45728;48.788;2.302;2022-12-07T16:30:19;20.75;;;13.45;;
59846;SDS011;45728;48.788;2.302;2022-12-07T16:32:46;22.67;;;14.38;;
59846;SDS011;45728;48.788;2.302;2022-12-07T16:35:12;23.27;;;14.10;;
59846;SDS011;45728;48.788;2.302;2022-12-07T16:37:38;20.65;;;13.35;;
59846;SDS011;45728;48.788;2.302;2022-12-07T16:40:07;18.67;;;13.02;;
59846;SDS011;45728;48.788;2.302;2022-12-07T16:42:34;20.83;;;9.43;;
59846;SDS011;45728;48.788;2.302;2022-12-07T16:45:01;23.83;;;15.07;;
59846;SDS011;45728;48.788;2.302;2022-12-07T16:47:27;22.88;;;14.77;;
59846;SDS011;45728;48.788;2.302;2022-12-07T16:49:53;24.05;;;14.15;;
59846;SDS011;45728;48.788;2.302;2022-12-07T16:52:20;21.15;;;14.30;;
59846;SDS011;45728;48.788;2.302;2022-12-07T16:54:47;17.77;;;8.98;;
59846;SDS011;45728;48.788;2.302;2022-12-07T16:57:14;21.70;;;14.30;;
59846;SDS011;45728;48.788;2.302;2022-12-07T16:59:40;20.83;;;14.57;;
59846;SDS011;45728;48.788;2.302;2022-12-07T17:02:08;22.75;;;16.15;;
59846;SDS011;45728;48.788;2.302;2022-12-07T17:04:36;23.42;;;15.32;;
59846;SDS011;45728;48.788;2.302;2022-12-07T17:07:05;18.85;;;15.20;;